createdAt,value
2024-01-31T00:00:24.627Z,2.00
2024-01-31T00:02:54.545Z,2.77
2024-01-31T00:05:23.605Z,2.90
2024-01-31T00:07:52.422Z,2.67
2024-01-31T00:10:21.310Z,2.13
2024-01-31T00:12:50.118Z,2.10
2024-01-31T00:15:19.094Z,2.53
2024-01-31T00:17:47.985Z,2.67
2024-01-31T00:20:18.346Z,3.17
2024-01-31T00:22:46.972Z,3.40
2024-01-31T00:25:15.719Z,3.40
2024-01-31T00:27:44.204Z,3.13
2024-01-31T00:30:14.261Z,2.77
2024-01-31T00:32:43.087Z,3.37
2024-01-31T00:35:11.765Z,2.73
2024-01-31T00:37:41.683Z,3.53
2024-01-31T00:40:11.606Z,3.50
2024-01-31T00:42:41.054Z,4.00
2024-01-31T00:45:10.560Z,3.53
2024-01-31T00:47:39.034Z,4.67
2024-01-31T00:50:09.149Z,4.00
2024-01-31T00:52:37.666Z,3.40
2024-01-31T00:55:08.734Z,4.00
2024-01-31T00:57:37.287Z,3.83
2024-01-31T01:00:10.094Z,4.80
2024-01-31T01:02:41.449Z,4.90
2024-01-31T01:05:10.786Z,5.10
2024-01-31T01:07:41.193Z,5.87
2024-01-31T01:10:13.810Z,6.60
2024-01-31T01:12:43.415Z,5.97
2024-01-31T01:15:16.039Z,5.40
2024-01-31T01:17:45.727Z,6.23
2024-01-31T01:20:14.634Z,6.20
2024-01-31T01:22:45.059Z,6.40
2024-01-31T01:25:16.972Z,6.20
2024-01-31T01:27:52.597Z,7.50
2024-01-31T01:30:21.649Z,6.80
2024-01-31T01:32:50.302Z,7.13
2024-01-31T01:35:19.274Z,8.00
2024-01-31T01:37:48.050Z,7.17
2024-01-31T01:40:18.798Z,8.10
2024-01-31T01:42:47.661Z,8.10
2024-01-31T01:45:17.595Z,8.23
2024-01-31T01:47:52.324Z,8.33
2024-01-31T01:50:22.060Z,7.00
2024-01-31T01:52:50.897Z,8.00
2024-01-31T01:55:20.969Z,8.63
2024-01-31T01:57:49.880Z,8.80
2024-01-31T02:00:20.116Z,8.40
2024-01-31T02:02:50.025Z,8.90
2024-01-31T02:05:18.885Z,9.10
2024-01-31T02:07:48.110Z,8.80
2024-01-31T02:10:17.288Z,9.33
2024-01-31T02:12:47.376Z,9.00
2024-01-31T02:15:15.832Z,9.10
2024-01-31T02:17:44.882Z,8.47
2024-01-31T02:20:17.414Z,7.67
2024-01-31T02:22:49.774Z,8.40
2024-01-31T02:25:18.733Z,8.07
2024-01-31T02:27:47.219Z,8.60
2024-01-31T02:30:17.237Z,7.50
2024-01-31T02:32:46.095Z,7.43
2024-01-31T02:35:15.481Z,7.30
2024-01-31T02:37:45.275Z,7.50
2024-01-31T02:40:16.342Z,6.90
2024-01-31T02:42:45.286Z,7.67
2024-01-31T02:45:14.075Z,7.17
2024-01-31T02:47:42.540Z,8.13
2024-01-31T02:50:11.704Z,7.20
2024-01-31T02:52:40.330Z,7.03
2024-01-31T02:55:10.380Z,7.07
2024-01-31T02:57:41.551Z,6.80
2024-01-31T03:00:13.797Z,6.90
2024-01-31T03:02:43.860Z,7.50
2024-01-31T03:05:13.838Z,7.40
2024-01-31T03:07:43.046Z,7.63
2024-01-31T03:10:12.207Z,8.50
2024-01-31T03:12:42.100Z,8.53
2024-01-31T03:15:10.897Z,7.27
2024-01-31T03:17:39.468Z,8.13
2024-01-31T03:20:09.832Z,7.07
2024-01-31T03:22:38.352Z,6.90
2024-01-31T03:25:08.799Z,8.47
2024-01-31T03:27:37.315Z,8.07
2024-01-31T03:30:10.566Z,9.23
2024-01-31T03:32:39.572Z,9.10
2024-01-31T03:35:09.408Z,9.57
2024-01-31T03:37:38.078Z,8.63
2024-01-31T03:40:10.060Z,9.77
2024-01-31T03:42:39.018Z,9.97
2024-01-31T03:45:09.916Z,10.93
2024-01-31T03:47:38.418Z,11.10
2024-01-31T03:50:08.368Z,11.87
2024-01-31T03:52:37.931Z,12.53
2024-01-31T03:55:07.522Z,13.43
2024-01-31T03:57:35.998Z,13.40
2024-01-31T04:00:09.774Z,12.60
2024-01-31T04:02:40.375Z,12.87
2024-01-31T04:05:12.808Z,12.60
2024-01-31T04:07:45.249Z,12.87
2024-01-31T04:10:15.701Z,12.37
2024-01-31T04:12:44.799Z,13.60
2024-01-31T04:15:13.551Z,14.60
2024-01-31T04:17:43.615Z,14.87
2024-01-31T04:20:14.061Z,15.27
2024-01-31T04:22:42.705Z,16.93
2024-01-31T04:25:11.177Z,16.60
2024-01-31T04:27:39.725Z,17.10
2024-01-31T04:30:13.069Z,17.50
2024-01-31T04:32:43.239Z,18.10
2024-01-31T04:35:11.893Z,17.97
2024-01-31T04:37:40.940Z,16.53
2024-01-31T04:40:11.160Z,18.33
2024-01-31T04:42:40.053Z,16.73
2024-01-31T04:45:10.914Z,18.40
2024-01-31T04:47:40.179Z,17.40
2024-01-31T04:50:13.355Z,17.00
2024-01-31T04:52:42.036Z,17.33
2024-01-31T04:55:11.038Z,16.40
2024-01-31T04:57:42.015Z,17.23
2024-01-31T05:00:17.694Z,17.57
2024-01-31T05:02:46.448Z,17.57
2024-01-31T05:05:16.732Z,18.73
2024-01-31T05:07:45.880Z,18.13
2024-01-31T05:10:15.084Z,17.30
2024-01-31T05:12:44.068Z,17.10
2024-01-31T05:15:12.599Z,14.70
2024-01-31T05:17:41.491Z,15.07
2024-01-31T05:20:11.547Z,13.70
2024-01-31T05:22:42.597Z,14.37
2024-01-31T05:25:11.444Z,15.73
2024-01-31T05:27:40.156Z,15.43
2024-01-31T05:30:10.271Z,14.43
2024-01-31T05:32:38.767Z,16.47
2024-01-31T05:35:08.946Z,14.87
2024-01-31T05:37:40.146Z,15.23
2024-01-31T05:40:13.108Z,14.40
2024-01-31T05:42:41.525Z,15.30
2024-01-31T05:45:11.333Z,15.67
2024-01-31T05:47:39.804Z,15.20
2024-01-31T05:50:11.065Z,14.03
2024-01-31T05:52:39.826Z,14.10
2024-01-31T05:55:15.377Z,14.80
2024-01-31T05:57:44.060Z,13.60
2024-01-31T06:00:16.680Z,15.10
2024-01-31T06:02:45.969Z,13.70
2024-01-31T06:05:15.250Z,13.70
2024-01-31T06:07:43.726Z,13.33
2024-01-31T06:10:14.009Z,12.90
2024-01-31T06:12:42.479Z,14.57
2024-01-31T06:15:11.472Z,14.77
2024-01-31T06:17:42.600Z,15.13
2024-01-31T06:20:13.425Z,15.60
2024-01-31T06:22:42.223Z,15.33
2024-01-31T06:25:12.427Z,12.90
2024-01-31T06:27:40.940Z,12.57
2024-01-31T06:30:12.209Z,12.40
2024-01-31T06:32:48.671Z,10.60
2024-01-31T06:35:17.516Z,10.90
2024-01-31T06:37:46.336Z,9.53
2024-01-31T06:40:16.506Z,7.53
2024-01-31T06:42:46.796Z,5.93
2024-01-31T06:45:16.423Z,7.00
2024-01-31T06:47:45.314Z,6.10
2024-01-31T06:50:14.706Z,6.27
2024-01-31T06:52:43.238Z,6.03
2024-01-31T06:55:12.288Z,5.63
2024-01-31T06:57:43.832Z,6.80
2024-01-31T07:00:13.688Z,6.80
2024-01-31T07:02:42.163Z,8.23
2024-01-31T07:05:10.764Z,8.00
2024-01-31T07:07:39.671Z,7.10
2024-01-31T07:10:09.498Z,8.37
2024-01-31T07:12:38.337Z,7.70
2024-01-31T07:15:09.776Z,7.43
2024-01-31T07:17:38.322Z,8.17
2024-01-31T07:20:09.291Z,8.40
2024-01-31T07:22:37.859Z,8.37
2024-01-31T07:25:11.946Z,9.00
2024-01-31T07:27:42.079Z,10.70
2024-01-31T07:30:13.250Z,10.27
2024-01-31T07:32:42.622Z,8.80
2024-01-31T07:35:11.201Z,9.83
2024-01-31T07:37:39.918Z,10.17
2024-01-31T07:40:10.989Z,10.20
2024-01-31T07:42:40.937Z,8.97
2024-01-31T07:45:11.995Z,11.03
2024-01-31T07:47:41.301Z,10.37
2024-01-31T07:50:11.197Z,10.50
2024-01-31T07:52:39.664Z,10.03
2024-01-31T07:55:11.827Z,10.60
2024-01-31T07:57:40.486Z,10.87
2024-01-31T08:00:12.174Z,9.87
2024-01-31T08:02:40.708Z,10.17
2024-01-31T08:05:09.590Z,9.63
2024-01-31T08:07:41.051Z,10.70
2024-01-31T08:10:13.411Z,9.73
2024-01-31T08:12:43.123Z,10.50
2024-01-31T08:15:13.167Z,10.27
2024-01-31T08:17:41.810Z,11.33
2024-01-31T08:20:12.185Z,10.80
2024-01-31T08:22:41.088Z,10.43
2024-01-31T08:25:11.009Z,11.20
2024-01-31T08:27:39.608Z,11.40
2024-01-31T08:30:10.110Z,11.10
2024-01-31T08:32:40.011Z,12.60
2024-01-31T08:35:09.782Z,11.80
2024-01-31T08:37:38.511Z,12.07
2024-01-31T08:40:12.488Z,12.93
2024-01-31T08:42:42.129Z,12.70
2024-01-31T08:45:12.796Z,13.57
2024-01-31T08:47:43.024Z,13.60
2024-01-31T08:50:12.959Z,14.87
2024-01-31T08:52:41.816Z,14.33
2024-01-31T08:55:11.223Z,14.60
2024-01-31T08:57:40.108Z,14.67
2024-01-31T09:00:11.130Z,14.73
2024-01-31T09:02:39.637Z,14.77
2024-01-31T09:05:12.159Z,15.03
2024-01-31T09:07:41.081Z,15.13
2024-01-31T09:10:10.546Z,15.40
2024-01-31T09:12:39.181Z,16.67
2024-01-31T09:15:09.074Z,16.47
2024-01-31T09:17:38.633Z,17.17
2024-01-31T09:20:12.207Z,18.60
2024-01-31T09:22:41.609Z,18.10
2024-01-31T09:25:12.239Z,17.17
2024-01-31T09:27:40.935Z,19.50
2024-01-31T09:30:11.807Z,20.00
2024-01-31T09:32:40.455Z,19.03
2024-01-31T09:35:10.841Z,20.50
2024-01-31T09:37:40.003Z,20.57
2024-01-31T09:40:11.519Z,20.40
2024-01-31T09:42:40.504Z,20.53
2024-01-31T09:45:12.705Z,22.90
2024-01-31T09:47:45.355Z,22.73
2024-01-31T09:50:15.308Z,21.83
2024-01-31T09:52:44.406Z,22.33
2024-01-31T09:55:14.030Z,22.13
2024-01-31T09:57:43.949Z,22.73
2024-01-31T10:00:12.938Z,24.93
2024-01-31T10:02:43.652Z,23.93
2024-01-31T10:05:12.258Z,24.03
2024-01-31T10:07:42.371Z,24.40
2024-01-31T10:10:12.171Z,23.67
2024-01-31T10:12:41.104Z,24.17
2024-01-31T10:15:11.604Z,21.50
2024-01-31T10:17:40.364Z,23.30
2024-01-31T10:20:12.921Z,22.57
2024-01-31T10:22:46.011Z,22.80
2024-01-31T10:25:18.706Z,22.47
2024-01-31T10:27:48.132Z,21.07
2024-01-31T10:30:18.576Z,20.43
2024-01-31T10:32:48.119Z,19.50
2024-01-31T10:37:56.703Z,20.30
2024-01-31T10:40:30.754Z,21.60
2024-01-31T10:43:00.530Z,20.93
2024-01-31T10:45:29.383Z,20.27
2024-01-31T10:47:58.036Z,19.80
2024-01-31T10:50:26.544Z,19.47
2024-01-31T10:52:56.994Z,19.73
2024-01-31T10:55:27.271Z,20.10
2024-01-31T10:57:56.604Z,18.03
2024-01-31T11:00:29.717Z,18.80
2024-01-31T11:02:59.378Z,17.10
2024-01-31T11:05:30.923Z,17.10
2024-01-31T11:08:01.509Z,19.10
2024-01-31T11:10:30.155Z,18.23
2024-01-31T11:13:04.834Z,18.30
2024-01-31T11:15:35.468Z,17.73
2024-01-31T11:18:10.430Z,16.27
2024-01-31T11:20:41.456Z,15.50
2024-01-31T11:23:15.288Z,17.63
2024-01-31T11:25:45.296Z,17.07
2024-01-31T11:28:15.163Z,16.53
2024-01-31T11:30:43.717Z,15.20
2024-01-31T11:33:12.380Z,15.53
2024-01-31T11:35:41.065Z,13.87
2024-01-31T11:38:11.210Z,13.07
2024-01-31T11:40:39.753Z,14.50
2024-01-31T11:43:09.708Z,14.23
2024-01-31T11:45:38.379Z,14.43
2024-01-31T11:48:07.957Z,14.57
2024-01-31T11:50:36.638Z,14.87
2024-01-31T11:53:05.661Z,13.90
2024-01-31T11:55:36.167Z,14.80
2024-01-31T11:58:05.022Z,11.93
2024-01-31T12:00:34.201Z,12.83
2024-01-31T12:03:03.064Z,12.20
2024-01-31T12:05:31.902Z,9.53
2024-01-31T12:08:01.097Z,8.70
2024-01-31T12:10:30.861Z,7.77
2024-01-31T12:13:02.256Z,7.67
2024-01-31T12:15:32.569Z,9.30
2024-01-31T12:18:02.823Z,8.50
2024-01-31T12:20:32.628Z,8.80
2024-01-31T12:23:01.287Z,8.37
2024-01-31T12:25:29.887Z,8.90
2024-01-31T12:27:58.372Z,8.60
2024-01-31T12:30:28.262Z,8.87
2024-01-31T12:32:57.089Z,7.53
2024-01-31T12:35:25.785Z,7.30
2024-01-31T12:37:54.341Z,7.33
2024-01-31T12:40:22.917Z,6.47
2024-01-31T12:42:52.185Z,6.10
2024-01-31T12:45:20.819Z,7.20
2024-01-31T12:47:52.556Z,5.93
2024-01-31T12:50:21.215Z,5.80
2024-01-31T12:52:50.179Z,4.10
2024-01-31T12:55:18.716Z,4.90
2024-01-31T12:57:49.763Z,4.07
2024-01-31T13:00:19.716Z,3.77
2024-01-31T13:02:48.351Z,4.10
2024-01-31T13:05:18.838Z,4.77
2024-01-31T13:07:47.865Z,4.80
2024-01-31T13:10:17.251Z,5.10
2024-01-31T13:12:45.671Z,5.30
2024-01-31T13:15:14.328Z,5.20
2024-01-31T13:17:42.926Z,5.47
2024-01-31T13:20:13.044Z,4.33
2024-01-31T13:22:43.321Z,4.50
2024-01-31T13:25:11.715Z,4.00
2024-01-31T13:27:40.187Z,3.90
2024-01-31T13:30:12.903Z,3.70
2024-01-31T13:32:41.907Z,3.73
2024-01-31T13:35:11.191Z,3.67
2024-01-31T13:37:39.609Z,3.47
2024-01-31T13:40:11.493Z,3.30
2024-01-31T13:42:40.214Z,2.87
2024-01-31T13:45:09.824Z,2.87
2024-01-31T13:47:38.505Z,3.17
2024-01-31T13:50:08.710Z,3.70
2024-01-31T13:52:37.229Z,3.20
2024-01-31T13:55:06.681Z,2.60
2024-01-31T13:57:36.712Z,3.27
2024-01-31T14:00:09.892Z,3.33
2024-01-31T14:02:40.190Z,3.30
2024-01-31T14:05:09.038Z,3.47
2024-01-31T14:07:37.570Z,2.97
2024-01-31T14:10:07.864Z,3.33
2024-01-31T14:12:38.335Z,3.67
2024-01-31T14:15:08.362Z,3.00
2024-01-31T14:17:37.232Z,3.40
2024-01-31T14:20:09.411Z,3.20
2024-01-31T14:22:56.526Z,3.60
2024-01-31T14:25:28.832Z,3.40
2024-01-31T14:27:58.611Z,3.83
2024-01-31T14:30:27.128Z,3.60
2024-01-31T14:32:55.890Z,3.50
2024-01-31T14:35:24.425Z,3.13
2024-01-31T14:37:52.821Z,3.30
2024-01-31T14:40:21.409Z,3.13
2024-01-31T14:42:50.422Z,3.40
2024-01-31T14:45:20.400Z,3.03
2024-01-31T14:47:50.105Z,3.60
2024-01-31T14:50:18.763Z,4.03
2024-01-31T14:52:47.450Z,3.73
2024-01-31T14:55:16.260Z,4.27
2024-01-31T14:57:45.095Z,4.67
2024-01-31T15:00:14.998Z,5.83
2024-01-31T15:02:47.344Z,7.30
2024-01-31T15:05:17.490Z,6.43
2024-01-31T15:07:46.137Z,6.10
2024-01-31T15:10:16.085Z,4.80
2024-01-31T15:12:44.811Z,4.03
2024-01-31T15:15:13.813Z,4.27
2024-01-31T15:17:42.643Z,4.10
2024-01-31T15:20:15.946Z,4.30
2024-01-31T15:22:46.559Z,3.93
2024-01-31T15:25:15.113Z,4.23
2024-01-31T15:27:45.300Z,6.20
2024-01-31T15:30:15.777Z,6.70
2024-01-31T15:32:45.005Z,7.70
2024-01-31T15:35:15.548Z,6.63
2024-01-31T15:37:45.983Z,7.23
2024-01-31T15:40:16.338Z,6.33
2024-01-31T15:42:44.802Z,6.07
2024-01-31T15:45:13.402Z,7.10
2024-01-31T15:47:44.544Z,6.23
2024-01-31T15:50:14.534Z,7.10
2024-01-31T15:52:43.011Z,6.47
2024-01-31T15:55:11.740Z,6.20
2024-01-31T15:57:40.299Z,6.30
2024-01-31T16:00:10.871Z,5.50
2024-01-31T16:02:39.366Z,6.07
2024-01-31T16:05:10.545Z,6.00
2024-01-31T16:07:40.688Z,6.40
2024-01-31T16:10:10.076Z,5.77
2024-01-31T16:12:38.600Z,5.27
2024-01-31T16:15:08.675Z,5.40
2024-01-31T16:17:37.211Z,5.40
2024-01-31T16:20:10.279Z,5.50
2024-01-31T16:22:40.724Z,5.10
2024-01-31T16:25:09.904Z,5.30
2024-01-31T16:27:39.006Z,4.90
2024-01-31T16:30:10.012Z,5.00
2024-01-31T16:32:39.257Z,5.07
2024-01-31T16:35:08.444Z,5.30
2024-01-31T16:37:37.201Z,5.40
2024-01-31T16:40:09.688Z,4.97
2024-01-31T16:42:38.203Z,5.23
2024-01-31T16:45:10.432Z,4.83
2024-01-31T16:47:39.482Z,4.97
2024-01-31T16:50:08.755Z,5.23
2024-01-31T16:52:37.165Z,5.70
2024-01-31T16:55:08.375Z,6.20
2024-01-31T16:57:36.814Z,5.37
2024-01-31T17:00:06.408Z,5.20
2024-01-31T17:02:35.057Z,4.97
2024-01-31T17:05:04.372Z,5.20
2024-01-31T17:07:32.763Z,5.17
2024-01-31T17:10:01.217Z,5.30
2024-01-31T17:12:32.790Z,4.67
2024-01-31T17:15:01.270Z,5.37
2024-01-31T17:17:29.772Z,5.67
2024-01-31T17:19:58.496Z,6.33
2024-01-31T17:22:27.156Z,6.60
2024-01-31T17:24:55.677Z,7.90
2024-01-31T17:27:24.411Z,9.40
2024-01-31T17:29:54.401Z,7.70
2024-01-31T17:32:22.832Z,6.97
2024-01-31T17:34:50.382Z,6.63
2024-01-31T17:37:21.316Z,6.70
2024-01-31T17:39:50.442Z,6.43
2024-01-31T17:42:18.951Z,6.07
2024-01-31T17:44:48.374Z,18.30
2024-01-31T17:47:18.304Z,5.20
2024-01-31T17:49:46.944Z,5.10
2024-01-31T17:52:15.382Z,6.10
2024-01-31T17:54:44.310Z,4.90
2024-01-31T17:57:14.099Z,4.60
2024-01-31T17:59:44.291Z,4.60
2024-01-31T18:02:12.735Z,5.73
2024-01-31T18:04:42.894Z,5.00
2024-01-31T18:07:11.418Z,4.93
2024-01-31T18:09:39.858Z,4.90
2024-01-31T18:12:15.876Z,5.17
2024-01-31T18:14:50.533Z,5.80
2024-01-31T18:17:19.162Z,5.43
2024-01-31T18:19:49.357Z,6.40
2024-01-31T18:22:18.066Z,21.60
2024-01-31T18:24:46.947Z,7.27
2024-01-31T18:27:15.553Z,7.10
2024-01-31T18:29:44.507Z,6.97
2024-01-31T18:32:13.041Z,7.10
2024-01-31T18:34:43.228Z,7.67
2024-01-31T18:37:15.764Z,7.30
2024-01-31T18:39:45.726Z,8.50
2024-01-31T18:42:14.451Z,8.73
2024-01-31T18:44:42.914Z,8.17
2024-01-31T18:47:11.545Z,8.40
2024-01-31T18:49:40.089Z,7.37
2024-01-31T18:52:09.345Z,7.73
2024-01-31T18:54:39.661Z,8.57
2024-01-31T18:57:08.227Z,9.27
2024-01-31T18:59:37.325Z,8.20
2024-01-31T19:02:07.096Z,7.70
2024-01-31T19:04:35.613Z,7.50
2024-01-31T19:07:04.467Z,7.23
2024-01-31T19:09:33.075Z,9.00
2024-01-31T19:12:02.911Z,8.97
2024-01-31T19:14:33.079Z,7.80
2024-01-31T19:17:10.565Z,7.37
2024-01-31T19:19:44.007Z,7.30
2024-01-31T19:22:12.507Z,6.83
2024-01-31T19:24:41.547Z,6.40
2024-01-31T19:27:11.632Z,6.53
2024-01-31T19:29:40.214Z,5.97
2024-01-31T19:32:08.772Z,6.67
2024-01-31T19:34:37.203Z,5.93
2024-01-31T19:37:06.236Z,6.37
2024-01-31T19:39:34.870Z,7.30
2024-01-31T19:42:03.307Z,7.80
2024-01-31T19:44:33.654Z,11.23
2024-01-31T19:47:03.240Z,8.07
2024-01-31T19:49:31.812Z,7.97
2024-01-31T19:52:00.331Z,5.43
2024-01-31T19:54:28.816Z,8.20
2024-01-31T19:56:57.299Z,8.10
2024-01-31T19:59:25.932Z,6.90
2024-01-31T20:01:55.815Z,6.07
2024-01-31T20:04:25.652Z,4.13
2024-01-31T20:06:54.254Z,3.90
2024-01-31T20:09:22.781Z,4.43
2024-01-31T20:11:53.715Z,4.80
2024-01-31T20:14:22.570Z,3.50
2024-01-31T20:16:51.455Z,4.33
2024-01-31T20:19:21.398Z,3.70
2024-01-31T20:21:50.215Z,4.00
2024-01-31T20:24:18.968Z,4.00
2024-01-31T20:26:47.730Z,4.00
2024-01-31T20:29:16.143Z,4.03
2024-01-31T20:31:44.680Z,3.77
2024-01-31T20:34:13.498Z,4.30
2024-01-31T20:36:43.890Z,4.10
2024-01-31T20:39:12.470Z,3.80
2024-01-31T20:41:44.453Z,3.60
2024-01-31T20:44:13.358Z,3.57
2024-01-31T20:46:41.920Z,4.43
2024-01-31T20:49:10.474Z,5.23
2024-01-31T20:51:43.706Z,3.90
2024-01-31T20:54:12.380Z,4.70
2024-01-31T20:56:40.925Z,4.97
2024-01-31T20:59:09.690Z,7.23
2024-01-31T21:01:42.923Z,6.00
2024-01-31T21:04:11.639Z,6.13
2024-01-31T21:06:40.668Z,8.27
2024-01-31T21:09:10.734Z,10.00
2024-01-31T21:11:39.329Z,19.83
2024-01-31T21:14:07.945Z,8.37
2024-01-31T21:16:36.763Z,5.73
2024-01-31T21:19:05.868Z,5.73
2024-01-31T21:21:35.726Z,5.20
2024-01-31T21:24:04.506Z,5.17
2024-01-31T21:26:34.818Z,5.20
2024-01-31T21:29:03.335Z,5.20
2024-01-31T21:31:31.795Z,5.40
2024-01-31T21:34:00.351Z,5.13
2024-01-31T21:36:28.897Z,6.13
2024-01-31T21:38:57.394Z,5.43
2024-01-31T21:41:28.116Z,6.23
2024-01-31T21:43:57.906Z,6.40
2024-01-31T21:46:26.458Z,5.97
2024-01-31T21:48:55.171Z,5.40
2024-01-31T21:51:23.948Z,5.90
2024-01-31T21:53:53.617Z,6.73
2024-01-31T21:56:22.050Z,6.53
2024-01-31T21:58:50.612Z,6.87
2024-01-31T22:01:20.506Z,6.83
2024-01-31T22:03:58.751Z,7.13
2024-01-31T22:06:30.350Z,6.90
2024-01-31T22:08:59.596Z,7.40
2024-01-31T22:11:28.516Z,8.40
2024-01-31T22:13:56.895Z,7.90
2024-01-31T22:16:26.704Z,6.87
2024-01-31T22:18:55.469Z,8.17
2024-01-31T22:21:24.228Z,7.87
2024-01-31T22:23:52.723Z,7.83
2024-01-31T22:26:23.596Z,8.57
2024-01-31T22:28:52.279Z,8.20
2024-01-31T22:31:20.723Z,9.30
2024-01-31T22:33:50.583Z,8.30
2024-01-31T22:36:19.210Z,8.43
2024-01-31T22:38:49.031Z,8.13
2024-01-31T22:41:18.249Z,9.47
2024-01-31T22:43:46.876Z,9.03
2024-01-31T22:46:15.314Z,9.37
2024-01-31T22:48:43.952Z,10.10
2024-01-31T22:51:13.875Z,8.53
2024-01-31T22:53:42.474Z,9.37
2024-01-31T22:56:11.406Z,10.00
2024-01-31T22:58:39.892Z,10.70
2024-01-31T23:01:08.742Z,9.67
2024-01-31T23:03:37.148Z,10.63
2024-01-31T23:06:06.554Z,11.17
2024-01-31T23:08:36.455Z,10.70
2024-01-31T23:11:05.603Z,11.87
2024-01-31T23:13:34.860Z,11.70
2024-01-31T23:16:03.461Z,11.70
2024-01-31T23:18:32.141Z,13.70
2024-01-31T23:21:01.819Z,12.57
2024-01-31T23:23:30.420Z,12.47
2024-01-31T23:26:00.671Z,13.67
2024-01-31T23:28:29.392Z,14.67
2024-01-31T23:30:58.131Z,14.70
2024-01-31T23:33:27.104Z,13.20
2024-01-31T23:35:55.713Z,14.50
2024-01-31T23:38:26.655Z,15.87
2024-01-31T23:40:55.955Z,16.13
2024-01-31T23:43:25.903Z,15.23
2024-01-31T23:45:54.396Z,15.10
2024-01-31T23:48:23.080Z,14.40
2024-01-31T23:50:52.336Z,14.07
2024-01-31T23:53:21.324Z,14.70
2024-01-31T23:55:52.426Z,14.37
2024-01-31T23:58:20.925Z,13.60
